Time,TemperatureF,DewpointF,PressureIn,WindDirection,WindDirectionDegrees,WindSpeedMPH,WindSpeedGustMPH,Humidity,HourlyPrecipIn,Conditions,Clouds,dailyrainin,SoftwareType,DateUTC
2013-03-31 00:02:00,54.9,51.7,30.02,West,270,6.0,17.0,89,0.06,,,0.00,WeatherCatV1.14B232,2013-03-31 07:02:00,
2013-03-31 00:07:00,54.8,51.6,30.01,West,262,13.0,14.0,89,0.06,,,0.00,WeatherCatV1.14B232,2013-03-31 07:07:00,
2013-03-31 00:12:00,54.8,51.6,30.01,West,270,10.0,14.0,89,0.05,,,0.00,WeatherCatV1.14B232,2013-03-31 07:12:00,
2013-03-31 00:17:00,54.7,51.5,30.02,WSW,250,13.0,15.0,89,0.00,,,0.00,WeatherCatV1.14B232,2013-03-31 07:17:00,
2013-03-31 00:22:00,54.7,51.5,30.03,West,259,15.0,15.0,89,0.00,,,0.00,WeatherCatV1.14B232,2013-03-31 07:22:00,
2013-03-31 00:27:00,54.7,51.5,30.02,West,281,8.0,17.0,89,0.00,,,0.00,WeatherCatV1.14B232,2013-03-31 07:27:00,
2013-03-31 00:32:00,54.6,51.4,30.02,West,261,10.0,13.0,89,0.00,,,0.00,WeatherCatV1.14B232,2013-03-31 07:32:00,
2013-03-31 00:37:00,54.7,51.5,30.02,WSW,237,12.0,17.0,89,0.00,,,0.00,WeatherCatV1.14B232,2013-03-31 07:37:00,
2013-03-31 00:42:00,54.7,51.5,30.02,West,278,6.0,13.0,89,0.00,,,0.00,WeatherCatV1.14B232,2013-03-31 07:42:00,
2013-03-31 00:47:00,54.7,51.5,30.02,WSW,243,9.0,9.0,89,0.00,,,0.00,WeatherCatV1.14B232,2013-03-31 07:47:00,
2013-03-31 00:52:00,54.6,51.4,30.02,SW,232,8.0,15.0,89,0.00,,,0.00,WeatherCatV1.14B232,2013-03-31 07:52:00,
2013-03-31 00:57:00,54.6,51.4,30.02,West,262,6.0,10.0,89,0.00,,,0.00,WeatherCatV1.14B232,2013-03-31 07:57:00,
2013-03-31 01:02:00,54.6,51.4,30.02,West,275,9.0,10.0,89,0.00,,,0.00,WeatherCatV1.14B232,2013-03-31 08:02:00,
2013-03-31 01:07:00,54.5,51.3,30.01,West,263,10.0,17.0,89,0.00,,,0.00,WeatherCatV1.14B232,2013-03-31 08:07:00,
2013-03-31 01:12:00,54.5,51.3,30.01,WNW,285,10.0,12.0,89,0.00,,,0.00,WeatherCatV1.14B232,2013-03-31 08:12:00,
2013-03-31 01:17:00,54.4,51.2,30.00,West,259,11.0,14.0,89,0.00,,,0.00,WeatherCatV1.14B232,2013-03-31 08:17:00,
2013-03-31 01:22:00,54.4,51.2,30.00,West,259,9.0,12.0,89,0.00,,,0.00,WeatherCatV1.14B232,2013-03-31 08:22:00,
2013-03-31 01:27:00,54.4,51.2,30.01,West,262,7.0,11.0,89,0.00,,,0.00,WeatherCatV1.14B232,2013-03-31 08:27:00,
2013-03-31 01:32:00,54.3,51.1,30.01,West,259,11.0,11.0,89,0.00,,,0.00,WeatherCatV1.14B232,2013-03-31 08:32:00,
2013-03-31 01:37:00,54.3,51.1,30.01,West,266,7.0,14.0,89,0.00,,,0.00,WeatherCatV1.14B232,2013-03-31 08:37:00,
2013-03-31 01:42:00,54.3,51.1,30.02,WSW,255,10.0,10.0,89,0.00,,,0.00,WeatherCatV1.14B232,2013-03-31 08:42:00,
2013-03-31 01:47:00,54.2,51.0,30.02,WSW,252,11.0,21.0,89,0.00,,,0.00,WeatherCatV1.14B232,2013-03-31 08:47:00,
2013-03-31 01:52:00,54.1,50.9,30.02,West,275,8.0,15.0,89,0.00,,,0.00,WeatherCatV1.14B232,2013-03-31 08:52:00,
2013-03-31 01:57:00,54.1,50.9,30.02,WSW,250,16.0,18.0,89,0.00,,,0.00,WeatherCatV1.14B232,2013-03-31 08:57:00,
2013-03-31 02:02:00,54.2,51.0,30.02,WSW,240,14.0,15.0,89,0.00,,,0.00,WeatherCatV1.14B232,2013-03-31 09:02:00,
2013-03-31 02:07:00,54.2,51.0,30.02,West,266,10.0,17.0,89,0.00,,,0.00,WeatherCatV1.14B232,2013-03-31 09:07:00,
2013-03-31 02:12:00,54.2,51.0,30.03,WSW,244,7.0,10.0,89,0.00,,,0.00,WeatherCatV1.14B232,2013-03-31 09:12:00,
2013-03-31 02:17:00,54.1,50.9,30.03,WSW,256,10.0,13.0,89,0.00,,,0.00,WeatherCatV1.14B232,2013-03-31 09:17:00,
2013-03-31 02:22:00,54.1,50.9,30.03,West,277,6.0,10.0,89,0.00,,,0.00,WeatherCatV1.14B232,2013-03-31 09:22:00,
2013-03-31 02:27:00,54.1,50.9,30.03,SSW,194,8.0,10.0,89,0.00,,,0.00,WeatherCatV1.14B232,2013-03-31 09:27:00,
2013-03-31 02:32:00,54.1,50.9,30.03,West,263,8.0,10.0,89,0.00,,,0.00,WeatherCatV1.14B232,2013-03-31 09:32:00,
2013-03-31 02:37:00,54.1,50.9,30.03,West,259,5.0,8.0,89,0.00,,,0.00,WeatherCatV1.14B232,2013-03-31 09:37:00,
2013-03-31 02:42:00,54.0,50.8,30.03,WSW,250,4.0,5.0,89,0.00,,,0.00,WeatherCatV1.14B232,2013-03-31 09:42:00,
2013-03-31 02:47:00,54.0,50.8,30.03,West,266,4.0,6.0,89,0.00,,,0.00,WeatherCatV1.14B232,2013-03-31 09:47:00,
2013-03-31 02:52:00,54.0,50.8,30.03,WSW,257,4.0,6.0,89,0.00,,,0.00,WeatherCatV1.14B232,2013-03-31 09:52:00,
2013-03-31 02:57:00,53.9,50.7,30.03,SW,229,3.0,10.0,89,0.00,,,0.00,WeatherCatV1.14B232,2013-03-31 09:57:00,
2013-03-31 03:02:00,53.9,50.7,30.04,SW,235,7.0,7.0,89,0.00,,,0.00,WeatherCatV1.14B232,2013-03-31 10:02:00,
2013-03-31 03:07:00,54.0,50.8,30.04,WSW,238,3.0,6.0,89,0.00,,,0.00,WeatherCatV1.14B232,2013-03-31 10:07:00,
2013-03-31 03:12:00,53.9,50.7,30.04,WSW,256,4.0,5.0,89,0.00,,,0.00,WeatherCatV1.14B232,2013-03-31 10:12:00,
2013-03-31 03:17:00,53.9,50.7,30.04,WSW,248,2.0,4.0,89,0.00,,,0.00,WeatherCatV1.14B232,2013-03-31 10:17:00,
2013-03-31 03:22:00,53.9,50.7,30.04,West,262,3.0,4.0,89,0.00,,,0.00,WeatherCatV1.14B232,2013-03-31 10:22:00,
2013-03-31 03:27:00,53.9,50.7,30.04,West,259,4.0,5.0,89,0.00,,,0.00,WeatherCatV1.14B232,2013-03-31 10:27:00,
2013-03-31 03:32:00,53.9,50.7,30.04,SW,233,5.0,5.0,89,0.00,,,0.00,WeatherCatV1.14B232,2013-03-31 10:32:00,
2013-03-31 03:37:00,53.9,50.7,30.04,SW,228,5.0,9.0,89,0.00,,,0.00,WeatherCatV1.14B232,2013-03-31 10:37:00,
2013-03-31 03:42:00,53.9,50.7,30.05,West,262,3.0,9.0,89,0.00,,,0.00,WeatherCatV1.14B232,2013-03-31 10:42:00,
2013-03-31 03:47:00,53.7,50.5,30.04,West,266,8.0,8.0,89,0.00,,,0.00,WeatherCatV1.14B232,2013-03-31 10:47:00,
2013-03-31 03:52:00,53.5,50.3,30.04,West,259,5.0,7.0,89,0.00,,,0.00,WeatherCatV1.14B232,2013-03-31 10:52:00,
2013-03-31 03:57:00,53.4,50.2,30.04,West,264,3.0,6.0,89,0.00,,,0.00,WeatherCatV1.14B232,2013-03-31 10:57:00,
2013-03-31 04:02:00,53.2,50.0,30.04,WSW,249,5.0,7.0,89,0.00,,,0.00,WeatherCatV1.14B232,2013-03-31 11:02:00,
2013-03-31 04:07:00,53.1,49.9,30.04,West,278,3.0,5.0,89,0.00,,,0.00,WeatherCatV1.14B232,2013-03-31 11:07:00,
2013-03-31 04:12:00,53.1,49.9,30.04,West,262,4.0,5.0,89,0.00,,,0.00,WeatherCatV1.14B232,2013-03-31 11:12:00,
2013-03-31 04:17:00,53.0,49.8,30.04,West,263,3.0,5.0,89,0.00,,,0.00,WeatherCatV1.14B232,2013-03-31 11:17:00,
2013-03-31 04:22:00,52.9,49.7,30.04,West,262,5.0,5.0,89,0.00,,,0.00,WeatherCatV1.14B232,2013-03-31 11:22:00,
2013-03-31 04:27:00,52.8,49.6,30.04,West,261,3.0,6.0,89,0.00,,,0.00,WeatherCatV1.14B232,2013-03-31 11:27:00,
2013-03-31 04:32:00,52.7,49.5,30.04,WNW,282,3.0,6.0,89,0.00,,,0.00,WeatherCatV1.14B232,2013-03-31 11:32:00,
2013-03-31 04:37:00,52.7,49.5,30.04,West,259,5.0,8.0,89,0.00,,,0.00,WeatherCatV1.14B232,2013-03-31 11:37:00,
2013-03-31 04:42:00,52.7,49.5,30.04,WSW,253,4.0,6.0,89,0.00,,,0.00,WeatherCatV1.14B232,2013-03-31 11:42:00,
2013-03-31 04:47:00,52.7,49.5,30.04,WSW,252,4.0,5.0,89,0.00,,,0.00,WeatherCatV1.14B232,2013-03-31 11:47:00,
2013-03-31 04:52:00,52.7,49.5,30.04,WSW,256,5.0,6.0,89,0.00,,,0.00,WeatherCatV1.14B232,2013-03-31 11:52:00,
2013-03-31 04:57:00,52.6,49.5,30.03,WSW,244,4.0,4.0,89,0.00,,,0.00,WeatherCatV1.14B232,2013-03-31 11:57:00,
2013-03-31 05:02:00,52.4,49.3,30.04,WSW,247,4.0,4.0,89,0.00,,,0.00,WeatherCatV1.14B232,2013-03-31 12:02:00,
2013-03-31 05:07:00,52.3,49.2,30.03,WSW,256,4.0,5.0,89,0.00,,,0.00,WeatherCatV1.14B232,2013-03-31 12:07:00,
2013-03-31 05:12:00,52.4,49.3,30.03,West,259,4.0,4.0,89,0.00,,,0.00,WeatherCatV1.14B232,2013-03-31 12:12:00,
2013-03-31 05:17:00,52.4,49.3,30.04,WSW,244,4.0,5.0,89,0.00,,,0.00,WeatherCatV1.14B232,2013-03-31 12:17:00,
2013-03-31 05:22:00,52.4,49.3,30.04,WSW,252,4.0,4.0,89,0.00,,,0.00,WeatherCatV1.14B232,2013-03-31 12:22:00,
2013-03-31 05:27:00,52.6,49.5,30.04,West,266,3.0,4.0,89,0.00,,,0.00,WeatherCatV1.14B232,2013-03-31 12:27:00,
2013-03-31 05:32:00,52.7,49.5,30.04,West,261,3.0,5.0,89,0.00,,,0.00,WeatherCatV1.14B232,2013-03-31 12:32:00,
2013-03-31 05:37:00,52.8,49.6,30.04,WSW,253,2.0,4.0,89,0.00,,,0.00,WeatherCatV1.14B232,2013-03-31 12:37:00,
2013-03-31 05:42:00,52.9,49.7,30.04,WSW,246,2.0,3.0,89,0.00,,,0.00,WeatherCatV1.14B232,2013-03-31 12:42:00,
2013-03-31 05:47:00,52.9,49.7,30.05,WSW,245,2.0,2.0,89,0.00,,,0.00,WeatherCatV1.14B232,2013-03-31 12:47:00,
2013-03-31 05:52:00,52.9,49.7,30.05,WSW,248,2.0,2.0,89,0.00,,,0.00,WeatherCatV1.14B232,2013-03-31 12:52:00,
2013-03-31 05:57:00,53.0,49.8,30.05,WSW,253,0.0,0.0,89,0.00,,,0.01,WeatherCatV1.14B232,2013-03-31 12:57:00,
2013-03-31 06:02:00,53.1,49.9,30.05,WSW,249,3.0,3.0,89,0.00,,,0.01,WeatherCatV1.14B232,2013-03-31 13:02:00,
2013-03-31 06:07:00,53.1,49.9,30.05,WSW,253,2.0,3.0,89,0.00,,,0.01,WeatherCatV1.14B232,2013-03-31 13:07:00,
2013-03-31 06:12:00,53.1,49.9,30.05,WSW,248,4.0,4.0,89,0.00,,,0.01,WeatherCatV1.14B232,2013-03-31 13:12:00,
2013-03-31 06:17:00,53.1,49.9,30.05,WSW,252,2.0,4.0,89,0.00,,,0.01,WeatherCatV1.14B232,2013-03-31 13:17:00,
2013-03-31 06:22:00,53.1,49.9,30.05,WSW,257,1.0,2.0,89,0.00,,,0.01,WeatherCatV1.14B232,2013-03-31 13:22:00,
2013-03-31 06:27:00,53.1,49.9,30.05,WSW,242,1.0,2.0,89,0.00,,,0.01,WeatherCatV1.14B232,2013-03-31 13:27:00,
2013-03-31 06:32:00,53.0,49.8,30.05,WSW,240,0.0,0.0,89,0.00,,,0.01,WeatherCatV1.14B232,2013-03-31 13:32:00,
2013-03-31 06:37:00,52.9,49.7,30.05,WSW,243,0.0,0.0,89,0.00,,,0.01,WeatherCatV1.14B232,2013-03-31 13:37:00,
2013-03-31 06:42:00,52.8,49.6,30.05,WSW,246,0.0,0.0,89,0.00,,,0.01,WeatherCatV1.14B232,2013-03-31 13:42:00,
2013-03-31 06:47:00,52.7,49.5,30.05,WSW,248,0.0,0.0,89,0.00,,,0.01,WeatherCatV1.14B232,2013-03-31 13:47:00,
2013-03-31 06:52:00,52.7,49.5,30.05,WSW,240,0.0,0.0,89,0.00,,,0.01,WeatherCatV1.14B232,2013-03-31 13:52:00,
2013-03-31 06:57:00,52.6,49.5,30.05,WSW,249,2.0,3.0,89,0.00,,,0.01,WeatherCatV1.14B232,2013-03-31 13:57:00,
2013-03-31 07:02:00,52.6,49.5,30.05,West,267,2.0,3.0,89,0.00,,,0.01,WeatherCatV1.14B232,2013-03-31 14:02:00,
2013-03-31 07:07:00,52.6,49.5,30.05,WSW,257,3.0,4.0,89,0.00,,,0.01,WeatherCatV1.14B232,2013-03-31 14:07:00,
2013-03-31 07:12:00,52.6,49.5,30.05,SSW,207,2.0,2.0,89,0.00,,,0.01,WeatherCatV1.14B232,2013-03-31 14:12:00,
2013-03-31 07:17:00,52.7,49.5,30.05,SW,224,2.0,4.0,89,0.00,,,0.01,WeatherCatV1.14B232,2013-03-31 14:17:00,
2013-03-31 07:22:00,52.8,49.3,30.05,West,270,2.0,4.0,88,0.00,,,0.01,WeatherCatV1.14B232,2013-03-31 14:22:00,
2013-03-31 07:27:00,52.9,49.4,30.06,SW,236,2.0,3.0,88,0.00,,,0.01,WeatherCatV1.14B232,2013-03-31 14:27:00,
2013-03-31 07:32:00,53.0,49.5,30.06,West,262,3.0,5.0,88,0.00,,,0.01,WeatherCatV1.14B232,2013-03-31 14:32:00,
2013-03-31 07:37:00,53.1,49.6,30.06,WSW,257,3.0,4.0,88,0.00,,,0.01,WeatherCatV1.14B232,2013-03-31 14:37:00,
2013-03-31 07:42:00,53.1,49.6,30.06,WSW,256,2.0,3.0,88,0.00,,,0.01,WeatherCatV1.14B232,2013-03-31 14:42:00,
2013-03-31 07:47:00,53.2,49.7,30.06,WSW,248,2.0,3.0,88,0.00,,,0.01,WeatherCatV1.14B232,2013-03-31 14:47:00,
2013-03-31 07:52:00,53.4,49.9,30.06,WSW,249,2.0,2.0,88,0.00,,,0.01,WeatherCatV1.14B232,2013-03-31 14:52:00,
2013-03-31 07:57:00,53.5,50.0,30.07,WSW,248,1.0,3.0,88,0.00,,,0.01,WeatherCatV1.14B232,2013-03-31 14:57:00,
2013-03-31 08:02:00,53.7,50.2,30.07,WSW,256,2.0,3.0,88,0.00,,,0.01,WeatherCatV1.14B232,2013-03-31 15:02:00,
2013-03-31 08:07:00,53.8,50.3,30.07,SW,232,2.0,3.0,88,0.00,,,0.01,WeatherCatV1.14B232,2013-03-31 15:07:00,
2013-03-31 08:12:00,53.9,50.4,30.07,WSW,243,1.0,2.0,88,0.00,,,0.01,WeatherCatV1.14B232,2013-03-31 15:12:00,
2013-03-31 08:17:00,54.1,50.6,30.07,WSW,243,0.0,0.0,88,0.00,,,0.01,WeatherCatV1.14B232,2013-03-31 15:17:00,
2013-03-31 08:22:00,54.3,50.8,30.07,WSW,243,0.0,0.0,88,0.00,,,0.01,WeatherCatV1.14B232,2013-03-31 15:22:00,
2013-03-31 08:27:00,54.5,51.0,30.07,West,259,0.0,0.0,88,0.00,,,0.01,WeatherCatV1.14B232,2013-03-31 15:27:00,
2013-03-31 08:32:00,54.6,51.1,30.07,SW,233,2.0,3.0,88,0.00,,,0.01,WeatherCatV1.14B232,2013-03-31 15:32:00,
2013-03-31 08:37:00,54.7,51.2,30.07,WSW,249,0.0,2.0,88,0.00,,,0.01,WeatherCatV1.14B232,2013-03-31 15:37:00,
2013-03-31 08:42:00,54.9,51.4,30.07,WSW,248,0.0,0.0,88,0.00,,,0.01,WeatherCatV1.14B232,2013-03-31 15:42:00,
2013-03-31 08:47:00,55.1,51.6,30.07,WSW,249,0.0,0.0,88,0.00,,,0.01,WeatherCatV1.14B232,2013-03-31 15:47:00,
2013-03-31 08:52:00,55.3,51.8,30.07,SW,228,0.0,0.0,88,0.00,,,0.01,WeatherCatV1.14B232,2013-03-31 15:52:00,
2013-03-31 08:57:00,55.4,51.9,30.07,WSW,252,2.0,2.0,88,0.00,,,0.01,WeatherCatV1.14B232,2013-03-31 15:57:00,
2013-03-31 09:02:00,55.6,52.1,30.07,SW,226,3.0,3.0,88,0.00,,,0.01,WeatherCatV1.14B232,2013-03-31 16:02:00,
2013-03-31 09:07:00,56.0,52.5,30.07,WSW,240,4.0,5.0,88,0.00,,,0.01,WeatherCatV1.14B232,2013-03-31 16:07:00,
2013-03-31 09:12:00,56.1,52.6,30.07,SW,214,1.0,4.0,88,0.00,,,0.01,WeatherCatV1.14B232,2013-03-31 16:12:00,
2013-03-31 09:17:00,56.5,52.7,30.07,WSW,244,0.0,0.0,87,0.00,,,0.01,WeatherCatV1.14B232,2013-03-31 16:17:00,
2013-03-31 09:22:00,56.9,53.1,30.07,WSW,240,0.0,0.0,87,0.00,,,0.01,WeatherCatV1.14B232,2013-03-31 16:22:00,
2013-03-31 09:27:00,57.1,53.3,30.07,SW,235,0.0,0.0,87,0.00,,,0.01,WeatherCatV1.14B232,2013-03-31 16:27:00,
2013-03-31 09:32:00,57.5,53.7,30.07,SW,229,2.0,2.0,87,0.00,,,0.01,WeatherCatV1.14B232,2013-03-31 16:32:00,
2013-03-31 09:37:00,58.1,54.2,30.06,NE,49,0.0,2.0,87,0.00,,,0.01,WeatherCatV1.14B232,2013-03-31 16:37:00,
2013-03-31 09:42:00,58.6,54.7,30.06,WSW,239,0.0,0.0,87,0.00,,,0.01,WeatherCatV1.14B232,2013-03-31 16:42:00,
2013-03-31 09:47:00,58.9,55.0,30.07,WSW,239,0.0,3.0,87,0.00,,,0.01,WeatherCatV1.14B232,2013-03-31 16:47:00,
2013-03-31 09:52:00,59.5,55.6,30.06,SW,236,0.0,0.0,87,0.00,,,0.01,WeatherCatV1.14B232,2013-03-31 16:52:00,
2013-03-31 09:57:00,59.8,55.9,30.07,NW,326,0.0,1.0,87,0.00,,,0.01,WeatherCatV1.14B232,2013-03-31 16:57:00,
2013-03-31 10:02:00,59.9,56.0,30.07,SW,219,0.0,2.0,87,0.00,,,0.01,WeatherCatV1.14B232,2013-03-31 17:02:00,
2013-03-31 10:07:00,59.9,55.7,30.07,WSW,254,3.0,4.0,86,0.00,,,0.01,WeatherCatV1.14B232,2013-03-31 17:07:00,
2013-03-31 10:12:00,59.5,55.3,30.07,West,262,1.0,3.0,86,0.00,,,0.01,WeatherCatV1.14B232,2013-03-31 17:12:00,
2013-03-31 10:17:00,60.1,55.9,30.07,SSE,163,2.0,3.0,86,0.00,,,0.01,WeatherCatV1.14B232,2013-03-31 17:17:00,
2013-03-31 10:22:00,60.0,55.1,30.07,WSW,243,3.0,3.0,84,0.00,,,0.01,WeatherCatV1.14B232,2013-03-31 17:22:00,
2013-03-31 10:27:00,60.5,55.6,30.07,SW,225,1.0,4.0,84,0.00,,,0.01,WeatherCatV1.14B232,2013-03-31 17:27:00,
2013-03-31 10:32:00,60.6,55.4,30.07,WSW,246,1.0,3.0,83,0.00,,,0.01,WeatherCatV1.14B232,2013-03-31 17:32:00,
2013-03-31 10:37:00,61.0,55.5,30.07,WSW,252,5.0,7.0,82,0.00,,,0.01,WeatherCatV1.14B232,2013-03-31 17:37:00,
2013-03-31 10:42:00,61.5,55.9,30.07,SSW,194,1.0,2.0,82,0.00,,,0.01,WeatherCatV1.14B232,2013-03-31 17:42:00,
2013-03-31 10:47:00,62.0,56.1,30.07,SW,226,1.0,3.0,81,0.00,,,0.01,WeatherCatV1.14B232,2013-03-31 17:47:00,
2013-03-31 10:52:00,62.4,55.4,30.07,SW,225,3.0,4.0,78,0.00,,,0.01,WeatherCatV1.14B232,2013-03-31 17:52:00,
2013-03-31 10:57:00,62.8,56.2,30.07,WSW,254,6.0,8.0,79,0.00,,,0.01,WeatherCatV1.14B232,2013-03-31 17:57:00,
2013-03-31 11:02:00,62.3,54.6,30.07,SSW,198,7.0,9.0,76,0.00,,,0.01,WeatherCatV1.14B232,2013-03-31 18:02:00,
2013-03-31 11:07:00,62.2,54.5,30.08,WSW,256,3.0,6.0,76,0.00,,,0.01,WeatherCatV1.14B232,2013-03-31 18:07:00,
2013-03-31 11:12:00,62.1,54.4,30.08,West,278,5.0,6.0,76,0.00,,,0.01,WeatherCatV1.14B232,2013-03-31 18:12:00,
2013-03-31 11:17:00,62.2,54.2,30.07,South,187,5.0,5.0,75,0.00,,,0.01,WeatherCatV1.14B232,2013-03-31 18:17:00,
2013-03-31 11:22:00,62.2,54.2,30.07,West,267,5.0,8.0,75,0.00,,,0.01,WeatherCatV1.14B232,2013-03-31 18:22:00,
2013-03-31 11:27:00,62.2,54.2,30.08,SW,231,5.0,7.0,75,0.00,,,0.01,WeatherCatV1.14B232,2013-03-31 18:27:00,
2013-03-31 11:32:00,61.6,53.6,30.07,WSW,246,4.0,7.0,75,0.00,,,0.01,WeatherCatV1.14B232,2013-03-31 18:32:00,
2013-03-31 11:37:00,61.1,53.1,30.07,South,183,3.0,5.0,75,0.00,,,0.01,WeatherCatV1.14B232,2013-03-31 18:37:00,
2013-03-31 11:42:00,60.9,53.3,30.07,WSW,248,3.0,7.0,76,0.00,,,0.01,WeatherCatV1.14B232,2013-03-31 18:42:00,
2013-03-31 11:47:00,60.5,53.2,30.07,West,259,2.0,6.0,77,0.00,,,0.01,WeatherCatV1.14B232,2013-03-31 18:47:00,
2013-03-31 11:52:00,60.2,53.7,30.07,West,260,3.0,7.0,79,0.00,,,0.01,WeatherCatV1.14B232,2013-03-31 18:52:00,
2013-03-31 11:57:00,59.8,53.3,30.08,SW,228,5.0,6.0,79,0.00,,,0.01,WeatherCatV1.14B232,2013-03-31 18:57:00,
2013-03-31 12:02:00,59.4,53.2,30.08,SW,236,5.0,9.0,80,0.00,,,0.01,WeatherCatV1.14B232,2013-03-31 19:02:00,
2013-03-31 12:07:00,58.8,53.0,30.08,West,267,3.0,6.0,81,0.00,,,0.02,WeatherCatV1.14B232,2013-03-31 19:07:00,
2013-03-31 12:12:00,58.2,53.1,30.08,West,260,2.0,4.0,83,0.00,,,0.02,WeatherCatV1.14B232,2013-03-31 19:12:00,
2013-03-31 12:17:00,57.9,53.1,30.08,WSW,248,2.0,2.0,84,0.00,,,0.02,WeatherCatV1.14B232,2013-03-31 19:17:00,
2013-03-31 12:22:00,57.8,53.0,30.08,West,264,2.0,3.0,84,0.05,,,0.03,WeatherCatV1.14B232,2013-03-31 19:22:00,
2013-03-31 12:27:00,57.6,53.1,30.07,WSW,240,2.0,3.0,85,0.05,,,0.03,WeatherCatV1.14B232,2013-03-31 19:27:00,
2013-03-31 12:32:00,57.7,53.2,30.07,West,259,3.0,5.0,85,0.04,,,0.03,WeatherCatV1.14B232,2013-03-31 19:32:00,
2013-03-31 12:37:00,57.7,53.5,30.07,West,261,3.0,4.0,86,0.00,,,0.03,WeatherCatV1.14B232,2013-03-31 19:37:00,
2013-03-31 12:42:00,57.5,53.0,30.07,West,264,2.0,5.0,85,0.00,,,0.03,WeatherCatV1.14B232,2013-03-31 19:42:00,
2013-03-31 12:47:00,57.6,53.4,30.07,WSW,253,3.0,4.0,86,0.00,,,0.03,WeatherCatV1.14B232,2013-03-31 19:47:00,
2013-03-31 12:52:00,57.9,53.7,30.07,WSW,253,4.0,6.0,86,0.00,,,0.03,WeatherCatV1.14B232,2013-03-31 19:52:00,
2013-03-31 12:57:00,58.1,53.6,30.07,West,271,3.0,4.0,85,0.00,,,0.03,WeatherCatV1.14B232,2013-03-31 19:57:00,
2013-03-31 13:02:00,58.2,53.7,30.06,WSW,245,3.0,5.0,85,0.00,,,0.03,WeatherCatV1.14B232,2013-03-31 20:02:00,
2013-03-31 13:07:00,58.5,54.3,30.06,West,263,3.0,6.0,86,0.00,,,0.03,WeatherCatV1.14B232,2013-03-31 20:07:00,
2013-03-31 13:12:00,58.2,53.7,30.06,West,259,3.0,5.0,85,0.00,,,0.03,WeatherCatV1.14B232,2013-03-31 20:12:00,
2013-03-31 13:17:00,58.4,54.2,30.06,West,273,4.0,6.0,86,0.00,,,0.04,WeatherCatV1.14B232,2013-03-31 20:17:00,
2013-03-31 13:22:00,58.3,54.1,30.06,West,269,6.0,11.0,86,0.00,,,0.04,WeatherCatV1.14B232,2013-03-31 20:22:00,
2013-03-31 13:27:00,58.2,54.0,30.06,WSW,243,6.0,10.0,86,0.00,,,0.04,WeatherCatV1.14B232,2013-03-31 20:27:00,
2013-03-31 13:32:00,57.9,53.7,30.06,West,264,8.0,11.0,86,0.00,,,0.04,WeatherCatV1.14B232,2013-03-31 20:32:00,
2013-03-31 13:37:00,57.4,53.2,30.06,WSW,252,7.0,10.0,86,0.00,,,0.04,WeatherCatV1.14B232,2013-03-31 20:37:00,
2013-03-31 13:42:00,56.9,52.8,30.06,West,280,4.0,8.0,86,0.00,,,0.04,WeatherCatV1.14B232,2013-03-31 20:42:00,
2013-03-31 13:47:00,56.9,52.8,30.05,SW,234,3.0,5.0,86,0.00,,,0.04,WeatherCatV1.14B232,2013-03-31 20:47:00,
2013-03-31 13:52:00,56.8,52.3,30.05,West,274,9.0,9.0,85,0.00,,,0.04,WeatherCatV1.14B232,2013-03-31 20:52:00,
2013-03-31 13:57:00,56.4,51.9,30.05,SW,235,4.0,10.0,85,0.00,,,0.05,WeatherCatV1.14B232,2013-03-31 20:57:00,
2013-03-31 14:02:00,56.1,51.7,30.05,West,278,5.0,11.0,85,0.00,,,0.05,WeatherCatV1.14B232,2013-03-31 21:02:00,
2013-03-31 14:07:00,56.1,52.0,30.05,WSW,240,10.0,11.0,86,0.00,,,0.05,WeatherCatV1.14B232,2013-03-31 21:07:00,
2013-03-31 14:12:00,56.4,52.3,30.05,WSW,244,9.0,10.0,86,0.00,,,0.05,WeatherCatV1.14B232,2013-03-31 21:12:00,
2013-03-31 14:17:00,56.8,52.7,30.04,WSW,253,9.0,10.0,86,0.00,,,0.05,WeatherCatV1.14B232,2013-03-31 21:17:00,
2013-03-31 14:22:00,57.3,52.8,30.04,West,271,10.0,13.0,85,0.00,,,0.05,WeatherCatV1.14B232,2013-03-31 21:22:00,
2013-03-31 14:27:00,57.8,53.0,30.04,West,266,7.0,12.0,84,0.00,,,0.05,WeatherCatV1.14B232,2013-03-31 21:27:00,
2013-03-31 14:32:00,58.0,52.9,30.04,WSW,256,9.0,10.0,83,0.00,,,0.05,WeatherCatV1.14B232,2013-03-31 21:32:00,
2013-03-31 14:37:00,57.8,52.7,30.04,WSW,242,6.0,11.0,83,0.00,,,0.05,WeatherCatV1.14B232,2013-03-31 21:37:00,
2013-03-31 14:42:00,57.7,52.9,30.04,WSW,253,10.0,11.0,84,0.00,,,0.05,WeatherCatV1.14B232,2013-03-31 21:42:00,
2013-03-31 14:47:00,57.2,52.1,30.04,West,273,7.0,13.0,83,0.00,,,0.05,WeatherCatV1.14B232,2013-03-31 21:47:00,
2013-03-31 14:52:00,56.9,52.1,30.04,West,267,5.0,14.0,84,0.00,,,0.05,WeatherCatV1.14B232,2013-03-31 21:52:00,
2013-03-31 14:57:00,57.0,52.2,30.03,West,268,9.0,14.0,84,0.00,,,0.05,WeatherCatV1.14B232,2013-03-31 21:57:00,
2013-03-31 15:02:00,57.2,52.4,30.03,WSW,243,9.0,12.0,84,0.00,,,0.05,WeatherCatV1.14B232,2013-03-31 22:02:00,
2013-03-31 15:07:00,57.1,52.3,30.03,WSW,244,12.0,12.0,84,0.00,,,0.05,WeatherCatV1.14B232,2013-03-31 22:07:00,
2013-03-31 15:12:00,56.7,51.9,30.03,West,268,7.0,15.0,84,0.00,,,0.05,WeatherCatV1.14B232,2013-03-31 22:12:00,
2013-03-31 15:17:00,56.3,51.8,30.03,SW,228,11.0,15.0,85,0.00,,,0.06,WeatherCatV1.14B232,2013-03-31 22:17:00,
2013-03-31 15:22:00,56.1,51.7,30.03,WSW,248,8.0,13.0,85,0.00,,,0.06,WeatherCatV1.14B232,2013-03-31 22:22:00,
2013-03-31 15:27:00,56.1,51.7,30.03,West,260,11.0,14.0,85,0.00,,,0.06,WeatherCatV1.14B232,2013-03-31 22:27:00,
2013-03-31 15:32:00,56.2,51.7,30.03,West,269,11.0,17.0,85,0.00,,,0.06,WeatherCatV1.14B232,2013-03-31 22:32:00,
2013-03-31 15:37:00,56.6,51.8,30.02,WSW,257,9.0,17.0,84,0.00,,,0.06,WeatherCatV1.14B232,2013-03-31 22:37:00,
2013-03-31 15:42:00,57.1,52.0,30.02,West,259,13.0,19.0,83,0.00,,,0.06,WeatherCatV1.14B232,2013-03-31 22:42:00,
2013-03-31 15:47:00,57.7,52.2,30.02,SW,228,13.0,19.0,82,0.00,,,0.06,WeatherCatV1.14B232,2013-03-31 22:47:00,
2013-03-31 15:52:00,58.4,52.9,30.02,WSW,248,11.0,13.0,82,0.00,,,0.06,WeatherCatV1.14B232,2013-03-31 22:52:00,
2013-03-31 15:57:00,58.6,52.8,30.02,West,261,10.0,14.0,81,0.00,,,0.06,WeatherCatV1.14B232,2013-03-31 22:57:00,
2013-03-31 16:02:00,58.7,52.5,30.02,West,281,9.0,20.0,80,0.00,,,0.06,WeatherCatV1.14B232,2013-03-31 23:02:00,
2013-03-31 16:07:00,58.8,52.6,30.02,WSW,255,10.0,16.0,80,0.00,,,0.06,WeatherCatV1.14B232,2013-03-31 23:07:00,
2013-03-31 16:12:00,58.6,52.4,30.02,West,278,12.0,13.0,80,0.00,,,0.06,WeatherCatV1.14B232,2013-03-31 23:12:00,
2013-03-31 16:17:00,58.9,52.7,30.02,WSW,250,13.0,14.0,80,0.00,,,0.06,WeatherCatV1.14B232,2013-03-31 23:17:00,
2013-03-31 16:22:00,59.4,52.9,30.01,WSW,244,13.0,17.0,79,0.00,,,0.06,WeatherCatV1.14B232,2013-03-31 23:22:00,
2013-03-31 16:27:00,60.1,53.9,30.01,WSW,243,10.0,15.0,80,0.00,,,0.06,WeatherCatV1.14B232,2013-03-31 23:27:00,
2013-03-31 16:32:00,60.1,53.6,30.01,West,273,6.0,17.0,79,0.00,,,0.06,WeatherCatV1.14B232,2013-03-31 23:32:00,
2013-03-31 16:37:00,60.0,53.5,30.01,WSW,245,13.0,14.0,79,0.00,,,0.06,WeatherCatV1.14B232,2013-03-31 23:37:00,
2013-03-31 16:42:00,59.9,53.0,30.01,West,259,11.0,17.0,78,0.00,,,0.06,WeatherCatV1.14B232,2013-03-31 23:42:00,
2013-03-31 16:47:00,59.5,53.0,30.01,West,274,8.0,15.0,79,0.00,,,0.06,WeatherCatV1.14B232,2013-03-31 23:47:00,
2013-03-31 16:52:00,58.8,52.3,30.01,West,274,11.0,18.0,79,0.00,,,0.06,WeatherCatV1.14B232,2013-03-31 23:52:00,
2013-03-31 16:57:00,58.0,52.2,30.01,West,270,11.0,12.0,81,0.00,,,0.06,WeatherCatV1.14B232,2013-03-31 23:57:00,
2013-03-31 17:02:00,57.6,52.1,30.02,WSW,249,9.0,12.0,82,0.00,,,0.06,WeatherCatV1.14B232,2013-04-01 00:02:00,
2013-03-31 17:07:00,57.4,51.9,30.02,West,261,12.0,13.0,82,0.00,,,0.06,WeatherCatV1.14B232,2013-04-01 00:07:00,
2013-03-31 17:12:00,57.4,52.3,30.02,West,262,13.0,15.0,83,0.00,,,0.06,WeatherCatV1.14B232,2013-04-01 00:12:00,
2013-03-31 17:17:00,57.2,52.1,30.02,WSW,257,15.0,19.0,83,0.00,,,0.06,WeatherCatV1.14B232,2013-04-01 00:17:00,
2013-03-31 17:22:00,57.3,52.2,30.02,West,264,17.0,17.0,83,0.00,,,0.06,WeatherCatV1.14B232,2013-04-01 00:22:00,
2013-03-31 17:27:00,57.2,52.1,30.02,WSW,247,13.0,14.0,83,0.00,,,0.06,WeatherCatV1.14B232,2013-04-01 00:27:00,
2013-03-31 17:32:00,57.0,51.9,30.01,WSW,257,11.0,13.0,83,0.00,,,0.06,WeatherCatV1.14B232,2013-04-01 00:32:00,
2013-03-31 17:37:00,56.8,51.7,30.01,West,259,9.0,18.0,83,0.00,,,0.06,WeatherCatV1.14B232,2013-04-01 00:37:00,
2013-03-31 17:42:00,56.9,52.1,30.02,West,267,9.0,15.0,84,0.00,,,0.06,WeatherCatV1.14B232,2013-04-01 00:42:00,
2013-03-31 17:47:00,56.9,52.1,30.02,WSW,249,10.0,16.0,84,0.00,,,0.06,WeatherCatV1.14B232,2013-04-01 00:47:00,
2013-03-31 17:52:00,57.3,52.5,30.02,West,271,7.0,15.0,84,0.00,,,0.06,WeatherCatV1.14B232,2013-04-01 00:52:00,
2013-03-31 17:57:00,57.5,52.4,30.02,WSW,245,9.0,13.0,83,0.00,,,0.06,WeatherCatV1.14B232,2013-04-01 00:57:00,
2013-03-31 18:02:00,57.4,52.3,30.02,WSW,257,10.0,12.0,83,0.00,,,0.06,WeatherCatV1.14B232,2013-04-01 01:02:00,
2013-03-31 18:07:00,57.1,52.0,30.02,WSW,249,9.0,10.0,83,0.00,,,0.06,WeatherCatV1.14B232,2013-04-01 01:07:00,
2013-03-31 18:12:00,56.6,51.8,30.02,West,259,8.0,11.0,84,0.00,,,0.06,WeatherCatV1.14B232,2013-04-01 01:12:00,
2013-03-31 18:17:00,56.4,51.6,30.02,WSW,248,6.0,10.0,84,0.00,,,0.06,WeatherCatV1.14B232,2013-04-01 01:17:00,
2013-03-31 18:22:00,56.2,51.7,30.02,West,274,10.0,12.0,85,0.00,,,0.06,WeatherCatV1.14B232,2013-04-01 01:22:00,
2013-03-31 18:27:00,56.1,51.7,30.02,West,269,10.0,16.0,85,0.00,,,0.06,WeatherCatV1.14B232,2013-04-01 01:27:00,
2013-03-31 18:32:00,55.9,51.5,30.02,WSW,256,8.0,13.0,85,0.00,,,0.06,WeatherCatV1.14B232,2013-04-01 01:32:00,
2013-03-31 18:37:00,55.9,51.5,30.02,West,273,9.0,15.0,85,0.00,,,0.06,WeatherCatV1.14B232,2013-04-01 01:37:00,
2013-03-31 18:42:00,55.9,51.5,30.02,SW,224,11.0,17.0,85,0.00,,,0.06,WeatherCatV1.14B232,2013-04-01 01:42:00,
2013-03-31 18:47:00,55.9,51.5,30.02,WSW,249,13.0,15.0,85,0.00,,,0.06,WeatherCatV1.14B232,2013-04-01 01:47:00,
2013-03-31 18:52:00,55.7,51.3,30.02,WSW,249,10.0,12.0,85,0.00,,,0.06,WeatherCatV1.14B232,2013-04-01 01:52:00,
2013-03-31 18:57:00,55.5,51.4,30.02,WSW,240,10.0,16.0,86,0.00,,,0.06,WeatherCatV1.14B232,2013-04-01 01:57:00,
2013-03-31 19:02:00,55.3,51.2,30.03,West,274,8.0,11.0,86,0.00,,,0.06,WeatherCatV1.14B232,2013-04-01 02:02:00,
2013-03-31 19:07:00,55.0,50.9,30.02,West,268,7.0,11.0,86,0.00,,,0.06,WeatherCatV1.14B232,2013-04-01 02:07:00,
2013-03-31 19:12:00,54.8,51.0,30.02,West,281,7.0,12.0,87,0.00,,,0.06,WeatherCatV1.14B232,2013-04-01 02:12:00,
2013-03-31 19:17:00,54.7,50.9,30.02,WSW,256,6.0,10.0,87,0.00,,,0.06,WeatherCatV1.14B232,2013-04-01 02:17:00,
2013-03-31 19:22:00,54.6,50.8,30.02,WNW,283,8.0,13.0,87,0.00,,,0.06,WeatherCatV1.14B232,2013-04-01 02:22:00,
2013-03-31 19:27:00,54.4,50.6,30.02,West,268,4.0,8.0,87,0.00,,,0.06,WeatherCatV1.14B232,2013-04-01 02:27:00,
2013-03-31 19:32:00,54.4,50.6,30.02,West,273,7.0,12.0,87,0.00,,,0.06,WeatherCatV1.14B232,2013-04-01 02:32:00,
2013-03-31 19:37:00,54.3,50.5,30.02,West,265,6.0,12.0,87,0.00,,,0.06,WeatherCatV1.14B232,2013-04-01 02:37:00,
2013-03-31 19:42:00,54.2,50.4,30.02,WSW,245,10.0,15.0,87,0.00,,,0.06,WeatherCatV1.14B232,2013-04-01 02:42:00,
2013-03-31 19:47:00,54.1,50.3,30.03,WSW,255,6.0,8.0,87,0.00,,,0.06,WeatherCatV1.14B232,2013-04-01 02:47:00,
2013-03-31 19:52:00,54.1,50.3,30.03,West,259,6.0,13.0,87,0.00,,,0.06,WeatherCatV1.14B232,2013-04-01 02:52:00,
2013-03-31 19:57:00,54.0,50.2,30.02,WSW,252,6.0,8.0,87,0.00,,,0.06,WeatherCatV1.14B232,2013-04-01 02:57:00,
2013-03-31 20:02:00,54.0,50.2,30.02,West,269,4.0,7.0,87,0.00,,,0.06,WeatherCatV1.14B232,2013-04-01 03:02:00,
2013-03-31 20:07:00,54.0,50.2,30.02,WSW,249,6.0,9.0,87,0.00,,,0.06,WeatherCatV1.14B232,2013-04-01 03:07:00,
2013-03-31 20:12:00,54.0,50.2,30.02,West,274,6.0,9.0,87,0.00,,,0.06,WeatherCatV1.14B232,2013-04-01 03:12:00,
2013-03-31 20:17:00,54.0,50.2,30.02,West,267,6.0,11.0,87,0.00,,,0.06,WeatherCatV1.14B232,2013-04-01 03:17:00,
2013-03-31 20:22:00,54.1,50.3,30.03,SW,236,7.0,12.0,87,0.00,,,0.06,WeatherCatV1.14B232,2013-04-01 03:22:00,
2013-03-31 20:27:00,54.1,50.3,30.03,West,264,5.0,10.0,87,0.00,,,0.06,WeatherCatV1.14B232,2013-04-01 03:27:00,
2013-03-31 20:32:00,54.2,50.4,30.03,West,266,5.0,7.0,87,0.00,,,0.06,WeatherCatV1.14B232,2013-04-01 03:32:00,
2013-03-31 20:37:00,54.2,50.4,30.03,WSW,253,4.0,5.0,87,0.00,,,0.06,WeatherCatV1.14B232,2013-04-01 03:37:00,
2013-03-31 20:42:00,54.2,50.4,30.03,West,271,5.0,11.0,87,0.00,,,0.06,WeatherCatV1.14B232,2013-04-01 03:42:00,
2013-03-31 20:47:00,54.3,50.5,30.03,SW,233,6.0,9.0,87,0.00,,,0.06,WeatherCatV1.14B232,2013-04-01 03:47:00,
2013-03-31 20:52:00,54.3,50.5,30.03,WSW,249,7.0,11.0,87,0.00,,,0.06,WeatherCatV1.14B232,2013-04-01 03:52:00,
2013-03-31 20:57:00,54.3,50.5,30.03,West,261,8.0,10.0,87,0.00,,,0.06,WeatherCatV1.14B232,2013-04-01 03:57:00,
2013-03-31 21:00:00,54.3,50.5,30.04,West,276,5.0,9.0,87,0.00,,,0.06,WeatherCatV1.14B232,2013-04-01 04:00:00,
2013-03-31 21:01:00,54.3,50.5,30.04,WSW,244,6.0,8.0,87,0.00,,,0.06,WeatherCatV1.14B232,2013-04-01 04:01:00,
2013-03-31 21:06:00,54.3,50.5,30.04,West,261,10.0,14.0,87,0.00,,,0.06,WeatherCatV1.14B232,2013-04-01 04:06:00,
2013-03-31 21:11:00,54.3,50.5,30.04,West,267,5.0,15.0,87,0.00,,,0.06,WeatherCatV1.14B232,2013-04-01 04:11:00,
2013-03-31 21:12:00,54.3,50.5,30.04,West,271,5.0,9.0,87,0.00,,,0.06,WeatherCatV1.14B232,2013-04-01 04:12:00,
2013-03-31 21:16:00,54.3,50.5,30.04,West,277,6.0,13.0,87,0.00,,,0.06,WeatherCatV1.14B232,2013-04-01 04:16:00,
2013-03-31 21:21:00,54.3,50.5,30.04,West,267,6.0,8.0,87,0.00,,,0.06,WeatherCatV1.14B232,2013-04-01 04:21:00,
2013-03-31 21:26:00,54.4,50.6,30.04,WSW,253,6.0,8.0,87,0.00,,,0.06,WeatherCatV1.14B232,2013-04-01 04:26:00,
2013-03-31 21:31:00,54.4,50.6,30.05,West,263,4.0,8.0,87,0.00,,,0.06,WeatherCatV1.14B232,2013-04-01 04:31:00,
2013-03-31 21:36:00,54.4,50.6,30.05,West,264,3.0,6.0,87,0.00,,,0.06,WeatherCatV1.14B232,2013-04-01 04:36:00,
2013-03-31 21:41:00,54.5,50.7,30.05,WSW,250,4.0,7.0,87,0.00,,,0.06,WeatherCatV1.14B232,2013-04-01 04:41:00,
2013-03-31 21:46:00,54.5,50.7,30.04,WSW,245,4.0,5.0,87,0.00,,,0.06,WeatherCatV1.14B232,2013-04-01 04:46:00,
2013-03-31 21:51:00,54.5,50.7,30.04,West,259,4.0,5.0,87,0.00,,,0.06,WeatherCatV1.14B232,2013-04-01 04:51:00,
2013-03-31 21:56:00,54.5,50.7,30.05,WSW,256,4.0,4.0,87,0.00,,,0.06,WeatherCatV1.14B232,2013-04-01 04:56:00,
2013-03-31 22:01:00,54.5,50.7,30.05,SW,236,2.0,5.0,87,0.00,,,0.06,WeatherCatV1.14B232,2013-04-01 05:01:00,
2013-03-31 22:06:00,54.5,50.7,30.05,WSW,248,2.0,3.0,87,0.00,,,0.06,WeatherCatV1.14B232,2013-04-01 05:06:00,
2013-03-31 22:11:00,54.5,50.4,30.05,WSW,240,2.0,3.0,86,0.00,,,0.06,WeatherCatV1.14B232,2013-04-01 05:11:00,
2013-03-31 22:16:00,54.5,50.4,30.05,WSW,237,1.0,3.0,86,0.00,,,0.06,WeatherCatV1.14B232,2013-04-01 05:16:00,
2013-03-31 22:21:00,54.5,50.4,30.05,WSW,245,2.0,3.0,86,0.00,,,0.06,WeatherCatV1.14B232,2013-04-01 05:21:00,
2013-03-31 22:26:00,54.6,50.5,30.05,West,259,3.0,4.0,86,0.00,,,0.06,WeatherCatV1.14B232,2013-04-01 05:26:00,
2013-03-31 22:31:00,54.6,50.5,30.05,West,259,3.0,3.0,86,0.00,,,0.06,WeatherCatV1.14B232,2013-04-01 05:31:00,
2013-03-31 22:36:00,54.6,50.5,30.05,WSW,246,4.0,5.0,86,0.00,,,0.06,WeatherCatV1.14B232,2013-04-01 05:36:00,
2013-03-31 22:41:00,54.7,50.6,30.05,WSW,257,3.0,4.0,86,0.00,,,0.06,WeatherCatV1.14B232,2013-04-01 05:41:00,
2013-03-31 22:46:00,54.7,50.6,30.05,WSW,243,3.0,3.0,86,0.00,,,0.06,WeatherCatV1.14B232,2013-04-01 05:46:00,
2013-03-31 22:51:00,54.7,50.6,30.05,WSW,255,4.0,5.0,86,0.00,,,0.06,WeatherCatV1.14B232,2013-04-01 05:51:00,
2013-03-31 22:56:00,54.7,50.6,30.05,West,274,4.0,4.0,86,0.00,,,0.06,WeatherCatV1.14B232,2013-04-01 05:56:00,
2013-03-31 23:01:00,54.7,50.6,30.05,West,271,4.0,6.0,86,0.00,,,0.06,WeatherCatV1.14B232,2013-04-01 06:01:00,
2013-03-31 23:06:00,54.7,50.6,30.05,West,263,4.0,6.0,86,0.00,,,0.06,WeatherCatV1.14B232,2013-04-01 06:06:00,
2013-03-31 23:11:00,54.6,50.5,30.05,SW,222,8.0,8.0,86,0.00,,,0.06,WeatherCatV1.14B232,2013-04-01 06:11:00,
2013-03-31 23:16:00,54.6,50.5,30.05,West,259,4.0,8.0,86,0.00,,,0.06,WeatherCatV1.14B232,2013-04-01 06:16:00,
2013-03-31 23:21:00,54.6,50.5,30.05,WSW,256,4.0,9.0,86,0.00,,,0.06,WeatherCatV1.14B232,2013-04-01 06:21:00,
2013-03-31 23:27:00,54.5,50.4,30.05,West,268,5.0,10.0,86,0.00,,,0.06,WeatherCatV1.14B232,2013-04-01 06:27:00,
2013-03-31 23:32:00,54.4,50.3,30.05,West,269,4.0,6.0,86,0.00,,,0.06,WeatherCatV1.14B232,2013-04-01 06:32:00,
2013-03-31 23:37:00,54.4,50.3,30.05,West,274,5.0,8.0,86,0.00,,,0.06,WeatherCatV1.14B232,2013-04-01 06:37:00,
2013-03-31 23:42:00,54.4,50.3,30.05,SW,234,7.0,10.0,86,0.00,,,0.06,WeatherCatV1.14B232,2013-04-01 06:42:00,
2013-03-31 23:47:00,54.3,50.2,30.05,West,266,3.0,6.0,86,0.00,,,0.06,WeatherCatV1.14B232,2013-04-01 06:47:00,
2013-03-31 23:52:00,54.3,50.2,30.05,West,274,6.0,7.0,86,0.00,,,0.06,WeatherCatV1.14B232,2013-04-01 06:52:00,
2013-03-31 23:57:00,54.3,50.2,30.05,West,259,4.0,8.0,86,0.00,,,0.06,WeatherCatV1.14B232,2013-04-01 06:57:00,